sensor_id;sensor_type;location;lat;lon;timestamp;temperature;humidity
1307;DHT22;646;48.696;9.114;2023-01-04T00:01:16;2.90;99.90
1307;DHT22;646;48.696;9.114;2023-01-04T00:03:42;2.60;99.90
1307;DHT22;646;48.696;9.114;2023-01-04T00:06:10;2.60;99.90
1307;DHT22;646;48.696;9.114;2023-01-04T00:08:36;2.60;99.90
1307;DHT22;646;48.696;9.114;2023-01-04T00:11:17;1.70;99.90
1307;DHT22;646;48.696;9.114;2023-01-04T00:13:44;2.60;99.90
1307;DHT22;646;48.696;9.114;2023-01-04T00:16:12;2.50;99.90
1307;DHT22;646;48.696;9.114;2023-01-04T00:18:38;2.20;99.90
1307;DHT22;646;48.696;9.114;2023-01-04T00:21:18;2.50;99.90
1307;DHT22;646;48.696;9.114;2023-01-04T00:23:46;2.20;99.90
1307;DHT22;646;48.696;9.114;2023-01-04T00:26:16;2.30;99.90
1307;DHT22;646;48.696;9.114;2023-01-04T00:28:42;2.20;99.90
1307;DHT22;646;48.696;9.114;2023-01-04T00:31:09;2.30;99.90
1307;DHT22;646;48.696;9.114;2023-01-04T00:33:35;1.80;99.90
1307;DHT22;646;48.696;9.114;2023-01-04T00:36:08;2.40;99.90
1307;DHT22;646;48.696;9.114;2023-01-04T00:38:35;2.30;99.90
1307;DHT22;646;48.696;9.114;2023-01-04T00:41:01;2.20;99.90
1307;DHT22;646;48.696;9.114;2023-01-04T00:43:27;2.40;99.90
1307;DHT22;646;48.696;9.114;2023-01-04T00:45:52;2.30;99.90
1307;DHT22;646;48.696;9.114;2023-01-04T00:48:18;2.40;99.90
1307;DHT22;646;48.696;9.114;2023-01-04T00:50:44;1.60;99.90
1307;DHT22;646;48.696;9.114;2023-01-04T00:53:11;2.20;99.90
1307;DHT22;646;48.696;9.114;2023-01-04T00:55:37;2.50;99.90
1307;DHT22;646;48.696;9.114;2023-01-04T00:58:03;2.20;99.90
1307;DHT22;646;48.696;9.114;2023-01-04T01:00:29;2.40;99.90
1307;DHT22;646;48.696;9.114;2023-01-04T01:02:54;2.50;99.90
1307;DHT22;646;48.696;9.114;2023-01-04T01:05:20;2.50;99.90
1307;DHT22;646;48.696;9.114;2023-01-04T01:07:45;2.30;99.90
1307;DHT22;646;48.696;9.114;2023-01-04T01:10:11;2.30;99.90
1307;DHT22;646;48.696;9.114;2023-01-04T01:12:36;2.10;99.90
1307;DHT22;646;48.696;9.114;2023-01-04T01:15:02;2.20;99.90
1307;DHT22;646;48.696;9.114;2023-01-04T01:17:27;2.30;99.90
1307;DHT22;646;48.696;9.114;2023-01-04T01:19:53;2.10;99.90
1307;DHT22;646;48.696;9.114;2023-01-04T01:22:18;2.50;99.90
1307;DHT22;646;48.696;9.114;2023-01-04T01:24:44;2.30;99.90
1307;DHT22;646;48.696;9.114;2023-01-04T01:27:09;2.40;99.90
1307;DHT22;646;48.696;9.114;2023-01-04T01:29:35;2.40;99.90
1307;DHT22;646;48.696;9.114;2023-01-04T01:32:00;2.60;99.90
1307;DHT22;646;48.696;9.114;2023-01-04T01:34:26;2.90;99.90
1307;DHT22;646;48.696;9.114;2023-01-04T01:36:51;2.50;99.90
1307;DHT22;646;48.696;9.114;2023-01-04T01:39:17;2.90;99.90
1307;DHT22;646;48.696;9.114;2023-01-04T01:41:43;2.70;99.90
1307;DHT22;646;48.696;9.114;2023-01-04T01:46:47;2.80;99.90
1307;DHT22;646;48.696;9.114;2023-01-04T01:49:32;2.70;99.90
1307;DHT22;646;48.696;9.114;2023-01-04T01:52:03;3.10;99.90
1307;DHT22;646;48.696;9.114;2023-01-04T01:54:33;3.10;99.90
1307;DHT22;646;48.696;9.114;2023-01-04T01:57:01;3.10;99.90
1307;DHT22;646;48.696;9.114;2023-01-04T01:59:27;2.90;99.90
1307;DHT22;646;48.696;9.114;2023-01-04T02:01:54;3.00;99.90
1307;DHT22;646;48.696;9.114;2023-01-04T02:04:19;3.10;99.90
1307;DHT22;646;48.696;9.114;2023-01-04T02:06:48;2.90;99.90
1307;DHT22;646;48.696;9.114;2023-01-04T02:09:14;2.90;99.90
1307;DHT22;646;48.696;9.114;2023-01-04T02:11:41;3.10;99.90
1307;DHT22;646;48.696;9.114;2023-01-04T02:14:07;3.00;99.90
1307;DHT22;646;48.696;9.114;2023-01-04T02:27:46;2.90;99.90
1307;DHT22;646;48.696;9.114;2023-01-04T02:36:33;3.00;99.90
1307;DHT22;646;48.696;9.114;2023-01-04T02:39:15;3.10;99.90
1307;DHT22;646;48.696;9.114;2023-01-04T02:44:16;3.20;99.90
1307;DHT22;646;48.696;9.114;2023-01-04T02:47:01;2.90;99.90
1307;DHT22;646;48.696;9.114;2023-01-04T02:49:28;3.20;99.90
1307;DHT22;646;48.696;9.114;2023-01-04T02:52:12;3.00;99.90
1307;DHT22;646;48.696;9.114;2023-01-04T02:54:38;2.90;99.90
1307;DHT22;646;48.696;9.114;2023-01-04T03:01:05;3.10;99.90
1307;DHT22;646;48.696;9.114;2023-01-04T03:03:17;2.70;99.90
1307;DHT22;646;48.696;9.114;2023-01-04T03:06:40;2.80;99.90
1307;DHT22;646;48.696;9.114;2023-01-04T03:09:19;3.00;99.90
1307;DHT22;646;48.696;9.114;2023-01-04T03:11:59;2.90;99.90
1307;DHT22;646;48.696;9.114;2023-01-04T03:14:56;3.20;99.90
1307;DHT22;646;48.696;9.114;2023-01-04T03:17:25;3.10;99.90
1307;DHT22;646;48.696;9.114;2023-01-04T03:19:52;2.90;99.90
1307;DHT22;646;48.696;9.114;2023-01-04T03:23:33;3.20;99.90
1307;DHT22;646;48.696;9.114;2023-01-04T03:25:51;3.10;99.90
1307;DHT22;646;48.696;9.114;2023-01-04T03:28:36;3.10;99.90
1307;DHT22;646;48.696;9.114;2023-01-04T03:31:43;3.30;99.90
1307;DHT22;646;48.696;9.114;2023-01-04T03:34:29;3.10;99.90
1307;DHT22;646;48.696;9.114;2023-01-04T03:37:30;2.90;99.90
1307;DHT22;646;48.696;9.114;2023-01-04T03:45:56;3.00;99.90
1307;DHT22;646;48.696;9.114;2023-01-04T03:48:58;2.80;99.90
1307;DHT22;646;48.696;9.114;2023-01-04T03:51:28;3.30;99.90
1307;DHT22;646;48.696;9.114;2023-01-04T03:56:29;2.80;99.90
1307;DHT22;646;48.696;9.114;2023-01-04T03:58:55;2.90;99.90
1307;DHT22;646;48.696;9.114;2023-01-04T04:01:23;2.90;99.90
1307;DHT22;646;48.696;9.114;2023-01-04T04:03:49;3.30;99.90
1307;DHT22;646;48.696;9.114;2023-01-04T04:06:33;3.10;99.90
1307;DHT22;646;48.696;9.114;2023-01-04T04:09:17;3.50;99.90
1307;DHT22;646;48.696;9.114;2023-01-04T04:11:43;3.60;99.90
1307;DHT22;646;48.696;9.114;2023-01-04T04:14:08;3.70;99.90
1307;DHT22;646;48.696;9.114;2023-01-04T04:16:34;3.80;99.90
1307;DHT22;646;48.696;9.114;2023-01-04T04:19:00;3.50;99.90
1307;DHT22;646;48.696;9.114;2023-01-04T04:21:25;3.70;99.90
1307;DHT22;646;48.696;9.114;2023-01-04T04:23:54;3.80;99.90
1307;DHT22;646;48.696;9.114;2023-01-04T04:26:19;3.70;99.90
1307;DHT22;646;48.696;9.114;2023-01-04T04:28:45;4.00;99.90
1307;DHT22;646;48.696;9.114;2023-01-04T04:31:11;3.90;99.90
1307;DHT22;646;48.696;9.114;2023-01-04T04:33:37;4.00;99.90
1307;DHT22;646;48.696;9.114;2023-01-04T04:36:02;4.00;99.90
1307;DHT22;646;48.696;9.114;2023-01-04T04:38:28;4.00;99.90
1307;DHT22;646;48.696;9.114;2023-01-04T04:40:54;3.60;99.90
1307;DHT22;646;48.696;9.114;2023-01-04T04:43:38;4.10;99.90
1307;DHT22;646;48.696;9.114;2023-01-04T04:46:04;4.00;99.90
1307;DHT22;646;48.696;9.114;2023-01-04T04:48:29;3.70;99.90
1307;DHT22;646;48.696;9.114;2023-01-04T04:50:55;4.10;99.90
1307;DHT22;646;48.696;9.114;2023-01-04T04:53:21;4.20;99.90
1307;DHT22;646;48.696;9.114;2023-01-04T04:55:49;4.50;99.90
1307;DHT22;646;48.696;9.114;2023-01-04T04:58:14;4.00;99.90
1307;DHT22;646;48.696;9.114;2023-01-04T05:00:40;4.30;99.90
1307;DHT22;646;48.696;9.114;2023-01-04T05:03:06;4.20;99.90
1307;DHT22;646;48.696;9.114;2023-01-04T05:05:31;4.60;99.90
1307;DHT22;646;48.696;9.114;2023-01-04T05:07:57;4.20;99.90
1307;DHT22;646;48.696;9.114;2023-01-04T05:10:22;3.80;99.90
1307;DHT22;646;48.696;9.114;2023-01-04T05:12:48;3.90;99.90
1307;DHT22;646;48.696;9.114;2023-01-04T05:15:32;4.30;99.90
1307;DHT22;646;48.696;9.114;2023-01-04T05:17:58;4.50;99.90
1307;DHT22;646;48.696;9.114;2023-01-04T05:20:24;4.50;99.90
1307;DHT22;646;48.696;9.114;2023-01-04T05:22:50;4.70;99.90
1307;DHT22;646;48.696;9.114;2023-01-04T05:25:16;3.90;99.90
1307;DHT22;646;48.696;9.114;2023-01-04T05:27:42;4.60;99.90
1307;DHT22;646;48.696;9.114;2023-01-04T05:30:09;4.60;99.90
1307;DHT22;646;48.696;9.114;2023-01-04T05:32:54;4.90;99.90
1307;DHT22;646;48.696;9.114;2023-01-04T05:35:19;4.10;99.90
1307;DHT22;646;48.696;9.114;2023-01-04T05:37:45;4.60;99.90
1307;DHT22;646;48.696;9.114;2023-01-04T05:40:10;4.90;99.90
1307;DHT22;646;48.696;9.114;2023-01-04T05:42:36;4.90;99.90
1307;DHT22;646;48.696;9.114;2023-01-04T05:45:02;4.80;99.90
1307;DHT22;646;48.696;9.114;2023-01-04T05:47:27;5.10;99.90
1307;DHT22;646;48.696;9.114;2023-01-04T05:49:53;4.80;99.90
1307;DHT22;646;48.696;9.114;2023-01-04T05:52:19;5.00;99.90
1307;DHT22;646;48.696;9.114;2023-01-04T05:54:45;5.10;99.90
1307;DHT22;646;48.696;9.114;2023-01-04T05:57:10;5.00;99.90
1307;DHT22;646;48.696;9.114;2023-01-04T05:59:36;5.20;99.90
1307;DHT22;646;48.696;9.114;2023-01-04T06:02:02;5.20;99.90
1307;DHT22;646;48.696;9.114;2023-01-04T06:04:27;5.10;99.90
1307;DHT22;646;48.696;9.114;2023-01-04T06:06:53;5.30;99.90
1307;DHT22;646;48.696;9.114;2023-01-04T06:09:18;5.30;99.90
1307;DHT22;646;48.696;9.114;2023-01-04T06:11:44;5.30;99.90
1307;DHT22;646;48.696;9.114;2023-01-04T06:14:10;5.30;99.90
1307;DHT22;646;48.696;9.114;2023-01-04T06:16:35;5.50;99.90
1307;DHT22;646;48.696;9.114;2023-01-04T06:19:01;5.70;99.90
1307;DHT22;646;48.696;9.114;2023-01-04T06:21:27;5.50;99.90
1307;DHT22;646;48.696;9.114;2023-01-04T06:23:52;5.00;99.90
1307;DHT22;646;48.696;9.114;2023-01-04T06:26:18;5.60;99.90
1307;DHT22;646;48.696;9.114;2023-01-04T06:28:44;5.10;99.90
1307;DHT22;646;48.696;9.114;2023-01-04T06:31:11;5.80;99.90
1307;DHT22;646;48.696;9.114;2023-01-04T06:33:37;5.60;99.90
1307;DHT22;646;48.696;9.114;2023-01-04T06:36:03;5.80;99.90
1307;DHT22;646;48.696;9.114;2023-01-04T06:38:29;5.90;99.90
1307;DHT22;646;48.696;9.114;2023-01-04T06:40:55;5.80;99.90
1307;DHT22;646;48.696;9.114;2023-01-04T06:43:20;5.60;99.90
1307;DHT22;646;48.696;9.114;2023-01-04T06:45:46;5.60;99.90
1307;DHT22;646;48.696;9.114;2023-01-04T06:48:11;5.80;99.90
1307;DHT22;646;48.696;9.114;2023-01-04T06:50:37;5.90;99.90
1307;DHT22;646;48.696;9.114;2023-01-04T06:53:03;6.00;99.90
1307;DHT22;646;48.696;9.114;2023-01-04T06:55:28;5.90;99.90
1307;DHT22;646;48.696;9.114;2023-01-04T06:57:55;6.00;99.90
1307;DHT22;646;48.696;9.114;2023-01-04T07:00:20;6.00;99.90
1307;DHT22;646;48.696;9.114;2023-01-04T07:02:46;5.80;99.90
1307;DHT22;646;48.696;9.114;2023-01-04T07:05:12;6.10;99.90
1307;DHT22;646;48.696;9.114;2023-01-04T07:07:38;6.00;99.90
1307;DHT22;646;48.696;9.114;2023-01-04T07:10:04;6.30;99.90
1307;DHT22;646;48.696;9.114;2023-01-04T07:12:30;6.00;99.90
1307;DHT22;646;48.696;9.114;2023-01-04T07:14:56;6.30;99.90
1307;DHT22;646;48.696;9.114;2023-01-04T07:17:21;6.20;99.90
1307;DHT22;646;48.696;9.114;2023-01-04T07:19:47;6.10;99.90
1307;DHT22;646;48.696;9.114;2023-01-04T07:22:12;6.20;99.90
1307;DHT22;646;48.696;9.114;2023-01-04T07:24:38;6.30;99.90
1307;DHT22;646;48.696;9.114;2023-01-04T07:27:03;6.20;99.90
1307;DHT22;646;48.696;9.114;2023-01-04T07:29:29;6.20;99.90
1307;DHT22;646;48.696;9.114;2023-01-04T07:31:55;6.10;99.90
1307;DHT22;646;48.696;9.114;2023-01-04T07:34:23;6.10;99.90
1307;DHT22;646;48.696;9.114;2023-01-04T07:36:49;6.10;99.90
1307;DHT22;646;48.696;9.114;2023-01-04T07:39:18;6.00;99.90
1307;DHT22;646;48.696;9.114;2023-01-04T07:41:45;5.80;99.90
1307;DHT22;646;48.696;9.114;2023-01-04T07:44:12;6.00;99.90
1307;DHT22;646;48.696;9.114;2023-01-04T07:46:38;5.90;99.90
1307;DHT22;646;48.696;9.114;2023-01-04T07:49:04;5.90;99.90
1307;DHT22;646;48.696;9.114;2023-01-04T07:51:31;5.80;99.90
1307;DHT22;646;48.696;9.114;2023-01-04T07:53:57;5.80;99.90
1307;DHT22;646;48.696;9.114;2023-01-04T07:56:23;5.70;99.90
1307;DHT22;646;48.696;9.114;2023-01-04T07:58:48;5.70;99.90
1307;DHT22;646;48.696;9.114;2023-01-04T08:01:16;5.40;99.90
1307;DHT22;646;48.696;9.114;2023-01-04T08:03:44;5.50;99.90
1307;DHT22;646;48.696;9.114;2023-01-04T08:06:12;5.70;99.90
1307;DHT22;646;48.696;9.114;2023-01-04T08:08:37;5.70;99.90
1307;DHT22;646;48.696;9.114;2023-01-04T08:11:05;5.70;99.90
1307;DHT22;646;48.696;9.114;2023-01-04T08:13:31;5.50;99.90
1307;DHT22;646;48.696;9.114;2023-01-04T08:15:57;5.60;99.90
1307;DHT22;646;48.696;9.114;2023-01-04T08:18:23;5.90;99.90
1307;DHT22;646;48.696;9.114;2023-01-04T08:20:49;5.60;99.90
1307;DHT22;646;48.696;9.114;2023-01-04T08:23:14;5.60;99.90
1307;DHT22;646;48.696;9.114;2023-01-04T08:25:40;5.50;99.90
1307;DHT22;646;48.696;9.114;2023-01-04T08:28:05;5.90;99.90
1307;DHT22;646;48.696;9.114;2023-01-04T08:30:31;5.70;99.90
1307;DHT22;646;48.696;9.114;2023-01-04T08:32:56;5.80;99.90
1307;DHT22;646;48.696;9.114;2023-01-04T08:35:22;5.50;99.90
1307;DHT22;646;48.696;9.114;2023-01-04T08:37:48;5.80;99.90
1307;DHT22;646;48.696;9.114;2023-01-04T08:40:14;5.70;99.90
1307;DHT22;646;48.696;9.114;2023-01-04T08:42:39;5.90;99.90
1307;DHT22;646;48.696;9.114;2023-01-04T08:45:05;5.60;99.90
1307;DHT22;646;48.696;9.114;2023-01-04T08:47:32;6.00;99.90
1307;DHT22;646;48.696;9.114;2023-01-04T08:49:58;5.80;99.90
1307;DHT22;646;48.696;9.114;2023-01-04T08:52:24;5.90;99.90
1307;DHT22;646;48.696;9.114;2023-01-04T08:54:50;6.00;99.90
1307;DHT22;646;48.696;9.114;2023-01-04T08:57:18;5.90;99.90
1307;DHT22;646;48.696;9.114;2023-01-04T08:59:44;5.90;99.90
1307;DHT22;646;48.696;9.114;2023-01-04T09:02:23;6.10;99.90
1307;DHT22;646;48.696;9.114;2023-01-04T09:04:49;6.20;99.90
1307;DHT22;646;48.696;9.114;2023-01-04T09:07:15;5.90;99.90
1307;DHT22;646;48.696;9.114;2023-01-04T09:09:41;5.80;99.90
1307;DHT22;646;48.696;9.114;2023-01-04T09:12:06;6.10;99.90
1307;DHT22;646;48.696;9.114;2023-01-04T09:14:32;5.90;99.90
1307;DHT22;646;48.696;9.114;2023-01-04T09:16:58;6.00;99.90
1307;DHT22;646;48.696;9.114;2023-01-04T09:19:23;6.00;99.90
1307;DHT22;646;48.696;9.114;2023-01-04T09:21:49;6.10;99.90
1307;DHT22;646;48.696;9.114;2023-01-04T09:24:14;6.30;99.90
1307;DHT22;646;48.696;9.114;2023-01-04T09:26:40;6.20;99.90
1307;DHT22;646;48.696;9.114;2023-01-04T09:29:05;6.30;99.90
1307;DHT22;646;48.696;9.114;2023-01-04T09:31:31;6.20;99.90
1307;DHT22;646;48.696;9.114;2023-01-04T09:33:57;6.30;99.90
1307;DHT22;646;48.696;9.114;2023-01-04T09:36:23;6.60;99.90
1307;DHT22;646;48.696;9.114;2023-01-04T09:38:49;6.40;99.90
1307;DHT22;646;48.696;9.114;2023-01-04T09:41:28;6.50;99.90
1307;DHT22;646;48.696;9.114;2023-01-04T09:46:49;6.50;99.90
1307;DHT22;646;48.696;9.114;2023-01-04T09:49:29;6.60;99.90
1307;DHT22;646;48.696;9.114;2023-01-04T09:52:21;6.60;99.90
1307;DHT22;646;48.696;9.114;2023-01-04T09:54:52;6.90;99.90
1307;DHT22;646;48.696;9.114;2023-01-04T09:57:24;6.70;99.90
1307;DHT22;646;48.696;9.114;2023-01-04T09:59:55;6.90;99.90
1307;DHT22;646;48.696;9.114;2023-01-04T10:02:39;7.10;99.90
1307;DHT22;646;48.696;9.114;2023-01-04T10:05:05;6.80;99.90
1307;DHT22;646;48.696;9.114;2023-01-04T10:07:32;7.40;99.90
1307;DHT22;646;48.696;9.114;2023-01-04T10:09:59;7.00;99.90
1307;DHT22;646;48.696;9.114;2023-01-04T10:12:58;7.30;99.90
1307;DHT22;646;48.696;9.114;2023-01-04T10:16:10;7.30;99.90
1307;DHT22;646;48.696;9.114;2023-01-04T10:18:40;7.40;99.90
1307;DHT22;646;48.696;9.114;2023-01-04T10:21:25;7.60;99.90
1307;DHT22;646;48.696;9.114;2023-01-04T10:26:46;7.80;99.90
1307;DHT22;646;48.696;9.114;2023-01-04T10:29:55;7.40;99.90
1307;DHT22;646;48.696;9.114;2023-01-04T10:32:42;7.80;99.90
1307;DHT22;646;48.696;9.114;2023-01-04T10:35:19;7.70;99.90
1307;DHT22;646;48.696;9.114;2023-01-04T10:37:49;7.70;99.90
1307;DHT22;646;48.696;9.114;2023-01-04T10:40:16;7.70;99.90
1307;DHT22;646;48.696;9.114;2023-01-04T10:43:03;7.80;99.90
1307;DHT22;646;48.696;9.114;2023-01-04T10:45:42;8.10;99.90
1307;DHT22;646;48.696;9.114;2023-01-04T10:48:25;7.90;99.90
1307;DHT22;646;48.696;9.114;2023-01-04T10:50:55;8.00;99.90
1307;DHT22;646;48.696;9.114;2023-01-04T10:53:50;8.30;99.90
1307;DHT22;646;48.696;9.114;2023-01-04T10:59:07;8.40;99.90
1307;DHT22;646;48.696;9.114;2023-01-04T11:01:43;8.50;99.90
1307;DHT22;646;48.696;9.114;2023-01-04T11:04:34;8.40;99.90
1307;DHT22;646;48.696;9.114;2023-01-04T11:07:24;8.60;99.90
1307;DHT22;646;48.696;9.114;2023-01-04T11:10:11;8.70;99.90
1307;DHT22;646;48.696;9.114;2023-01-04T11:12:38;8.90;99.90
1307;DHT22;646;48.696;9.114;2023-01-04T11:15:04;8.30;99.90
1307;DHT22;646;48.696;9.114;2023-01-04T11:17:30;8.70;99.90
1307;DHT22;646;48.696;9.114;2023-01-04T11:19:56;8.80;99.90
1307;DHT22;646;48.696;9.114;2023-01-04T11:22:37;9.00;99.90
1307;DHT22;646;48.696;9.114;2023-01-04T11:25:10;8.70;99.90
1307;DHT22;646;48.696;9.114;2023-01-04T11:27:45;9.00;99.90
1307;DHT22;646;48.696;9.114;2023-01-04T11:30:21;8.90;99.90
1307;DHT22;646;48.696;9.114;2023-01-04T11:33:07;9.10;99.90
1307;DHT22;646;48.696;9.114;2023-01-04T11:38:17;8.70;99.90
1307;DHT22;646;48.696;9.114;2023-01-04T11:43:28;9.20;99.90
1307;DHT22;646;48.696;9.114;2023-01-04T11:48:42;9.50;99.90
1307;DHT22;646;48.696;9.114;2023-01-04T11:56:28;9.60;99.90
1307;DHT22;646;48.696;9.114;2023-01-04T12:01:32;9.60;99.90
1307;DHT22;646;48.696;9.114;2023-01-04T12:03:58;9.60;99.90
1307;DHT22;646;48.696;9.114;2023-01-04T12:06:40;8.90;99.90
1307;DHT22;646;48.696;9.114;2023-01-04T12:09:13;9.80;99.90
1307;DHT22;646;48.696;9.114;2023-01-04T12:11:42;9.80;99.90
1307;DHT22;646;48.696;9.114;2023-01-04T12:17:00;9.70;99.90
1307;DHT22;646;48.696;9.114;2023-01-04T12:19:27;9.60;99.90
1307;DHT22;646;48.696;9.114;2023-01-04T12:21:56;10.00;99.90
1307;DHT22;646;48.696;9.114;2023-01-04T12:24:29;9.60;99.90
1307;DHT22;646;48.696;9.114;2023-01-04T12:26:55;10.10;99.90
1307;DHT22;646;48.696;9.114;2023-01-04T12:31:50;9.80;99.90
1307;DHT22;646;48.696;9.114;2023-01-04T12:47:03;9.60;99.90
1307;DHT22;646;48.696;9.114;2023-01-04T13:00:08;9.20;99.90
1307;DHT22;646;48.696;9.114;2023-01-04T13:02:43;10.00;99.90
1307;DHT22;646;48.696;9.114;2023-01-04T13:07:49;10.00;99.90
1307;DHT22;646;48.696;9.114;2023-01-04T13:13:30;9.90;99.90
1307;DHT22;646;48.696;9.114;2023-01-04T13:18:46;10.10;99.90
1307;DHT22;646;48.696;9.114;2023-01-04T13:21:27;10.20;99.90
1307;DHT22;646;48.696;9.114;2023-01-04T13:23:56;10.30;99.90
1307;DHT22;646;48.696;9.114;2023-01-04T13:26:49;10.10;99.90
1307;DHT22;646;48.696;9.114;2023-01-04T13:37:14;10.40;99.90
1307;DHT22;646;48.696;9.114;2023-01-04T13:39:58;10.00;99.90
1307;DHT22;646;48.696;9.114;2023-01-04T13:42:31;10.40;99.90
1307;DHT22;646;48.696;9.114;2023-01-04T13:47:35;10.00;99.90
1307;DHT22;646;48.696;9.114;2023-01-04T13:50:01;10.30;99.90
1307;DHT22;646;48.696;9.114;2023-01-04T13:52:28;10.10;99.90
1307;DHT22;646;48.696;9.114;2023-01-04T13:55:17;10.40;99.90
1307;DHT22;646;48.696;9.114;2023-01-04T13:57:58;10.40;99.90
1307;DHT22;646;48.696;9.114;2023-01-04T14:00:28;10.40;99.90
1307;DHT22;646;48.696;9.114;2023-01-04T14:03:30;10.60;99.90
1307;DHT22;646;48.696;9.114;2023-01-04T14:09:12;10.10;99.90
1307;DHT22;646;48.696;9.114;2023-01-04T14:14:57;10.70;99.90
1307;DHT22;646;48.696;9.114;2023-01-04T14:17:33;10.60;99.90
1307;DHT22;646;48.696;9.114;2023-01-04T14:22:53;10.50;99.90
1307;DHT22;646;48.696;9.114;2023-01-04T14:30:51;10.40;99.90
1307;DHT22;646;48.696;9.114;2023-01-04T14:41:39;10.50;99.90
1307;DHT22;646;48.696;9.114;2023-01-04T14:44:15;10.40;99.90
1307;DHT22;646;48.696;9.114;2023-01-04T14:46:42;10.50;99.90
1307;DHT22;646;48.696;9.114;2023-01-04T14:49:11;10.10;99.90
1307;DHT22;646;48.696;9.114;2023-01-04T14:51:42;10.50;99.90
1307;DHT22;646;48.696;9.114;2023-01-04T14:54:11;9.70;99.90
1307;DHT22;646;48.696;9.114;2023-01-04T14:56:37;10.50;99.90
1307;DHT22;646;48.696;9.114;2023-01-04T14:59:03;10.20;99.90
1307;DHT22;646;48.696;9.114;2023-01-04T15:01:29;9.90;99.90
1307;DHT22;646;48.696;9.114;2023-01-04T15:03:54;10.40;99.90
1307;DHT22;646;48.696;9.114;2023-01-04T15:06:20;10.40;99.90
1307;DHT22;646;48.696;9.114;2023-01-04T15:08:46;10.10;99.90
1307;DHT22;646;48.696;9.114;2023-01-04T15:11:12;10.30;99.90
1307;DHT22;646;48.696;9.114;2023-01-04T15:13:38;10.60;99.90
1307;DHT22;646;48.696;9.114;2023-01-04T15:16:04;10.40;99.90
1307;DHT22;646;48.696;9.114;2023-01-04T15:18:30;10.30;99.90
1307;DHT22;646;48.696;9.114;2023-01-04T15:20:56;10.30;99.90
1307;DHT22;646;48.696;9.114;2023-01-04T15:23:24;10.00;99.90
1307;DHT22;646;48.696;9.114;2023-01-04T15:25:53;10.30;99.90
1307;DHT22;646;48.696;9.114;2023-01-04T15:28:18;10.10;99.90
1307;DHT22;646;48.696;9.114;2023-01-04T15:30:46;9.90;99.90
1307;DHT22;646;48.696;9.114;2023-01-04T15:33:11;10.20;99.90
1307;DHT22;646;48.696;9.114;2023-01-04T15:35:37;9.80;99.90
1307;DHT22;646;48.696;9.114;2023-01-04T15:38:03;10.20;99.90
1307;DHT22;646;48.696;9.114;2023-01-04T15:40:28;9.90;99.90
1307;DHT22;646;48.696;9.114;2023-01-04T15:42:54;10.00;99.90
1307;DHT22;646;48.696;9.114;2023-01-04T15:45:38;9.90;99.90
1307;DHT22;646;48.696;9.114;2023-01-04T15:48:06;10.00;99.90
1307;DHT22;646;48.696;9.114;2023-01-04T15:50:39;9.90;99.90
1307;DHT22;646;48.696;9.114;2023-01-04T15:53:06;10.00;99.90
1307;DHT22;646;48.696;9.114;2023-01-04T15:55:32;10.10;99.90
1307;DHT22;646;48.696;9.114;2023-01-04T15:57:58;9.80;99.90
1307;DHT22;646;48.696;9.114;2023-01-04T16:00:24;9.40;99.90
1307;DHT22;646;48.696;9.114;2023-01-04T16:02:49;9.90;99.90
1307;DHT22;646;48.696;9.114;2023-01-04T16:05:15;9.80;99.90
1307;DHT22;646;48.696;9.114;2023-01-04T16:07:42;9.70;99.90
1307;DHT22;646;48.696;9.114;2023-01-04T16:10:08;9.70;99.90
1307;DHT22;646;48.696;9.114;2023-01-04T16:12:33;9.70;99.90
1307;DHT22;646;48.696;9.114;2023-01-04T16:15:15;9.60;99.90
1307;DHT22;646;48.696;9.114;2023-01-04T16:17:42;9.80;99.90
1307;DHT22;646;48.696;9.114;2023-01-04T16:20:09;9.30;99.90
1307;DHT22;646;48.696;9.114;2023-01-04T16:22:36;9.90;99.90
1307;DHT22;646;48.696;9.114;2023-01-04T16:25:01;9.70;99.90
1307;DHT22;646;48.696;9.114;2023-01-04T16:27:27;9.80;99.90
1307;DHT22;646;48.696;9.114;2023-01-04T16:29:53;9.80;99.90
1307;DHT22;646;48.696;9.114;2023-01-04T16:32:18;9.90;99.90
1307;DHT22;646;48.696;9.114;2023-01-04T16:34:44;9.20;99.90
1307;DHT22;646;48.696;9.114;2023-01-04T16:37:10;9.80;99.90
1307;DHT22;646;48.696;9.114;2023-01-04T16:39:35;9.80;99.90
1307;DHT22;646;48.696;9.114;2023-01-04T16:42:01;9.90;99.90
1307;DHT22;646;48.696;9.114;2023-01-04T16:44:26;9.70;99.90
1307;DHT22;646;48.696;9.114;2023-01-04T16:46:52;9.70;99.90
1307;DHT22;646;48.696;9.114;2023-01-04T16:49:17;10.10;99.90
1307;DHT22;646;48.696;9.114;2023-01-04T16:51:44;10.30;99.90
1307;DHT22;646;48.696;9.114;2023-01-04T16:54:16;10.30;99.90
1307;DHT22;646;48.696;9.114;2023-01-04T16:56:42;10.00;99.90
1307;DHT22;646;48.696;9.114;2023-01-04T16:59:13;10.10;99.90
1307;DHT22;646;48.696;9.114;2023-01-04T17:01:40;10.40;99.90
1307;DHT22;646;48.696;9.114;2023-01-04T17:04:06;10.10;99.90
1307;DHT22;646;48.696;9.114;2023-01-04T17:06:37;9.90;99.90
1307;DHT22;646;48.696;9.114;2023-01-04T17:09:04;10.50;99.90
1307;DHT22;646;48.696;9.114;2023-01-04T17:11:32;10.40;99.90
1307;DHT22;646;48.696;9.114;2023-01-04T17:13:58;10.20;99.90
1307;DHT22;646;48.696;9.114;2023-01-04T17:16:24;10.40;99.90
1307;DHT22;646;48.696;9.114;2023-01-04T17:18:51;10.30;99.90
1307;DHT22;646;48.696;9.114;2023-01-04T17:21:20;10.20;99.90
1307;DHT22;646;48.696;9.114;2023-01-04T17:23:47;10.60;99.90
1307;DHT22;646;48.696;9.114;2023-01-04T17:26:25;10.50;99.90
1307;DHT22;646;48.696;9.114;2023-01-04T17:28:51;10.50;99.90
1307;DHT22;646;48.696;9.114;2023-01-04T17:31:21;10.20;99.90
1307;DHT22;646;48.696;9.114;2023-01-04T17:33:48;10.30;99.90
1307;DHT22;646;48.696;9.114;2023-01-04T17:36:14;10.20;99.90
1307;DHT22;646;48.696;9.114;2023-01-04T17:38:40;10.40;99.90
1307;DHT22;646;48.696;9.114;2023-01-04T17:43:44;10.30;99.90
1307;DHT22;646;48.696;9.114;2023-01-04T17:46:13;10.40;99.90
1307;DHT22;646;48.696;9.114;2023-01-04T17:48:39;10.50;99.90
1307;DHT22;646;48.696;9.114;2023-01-04T17:51:19;10.10;99.90
1307;DHT22;646;48.696;9.114;2023-01-04T17:53:46;10.20;99.90
1307;DHT22;646;48.696;9.114;2023-01-04T17:56:17;10.30;99.90
1307;DHT22;646;48.696;9.114;2023-01-04T17:58:43;10.30;99.90
1307;DHT22;646;48.696;9.114;2023-01-04T18:01:12;10.50;99.90
1307;DHT22;646;48.696;9.114;2023-01-04T18:03:49;9.80;99.90
1307;DHT22;646;48.696;9.114;2023-01-04T18:06:17;10.70;99.90
1307;DHT22;646;48.696;9.114;2023-01-04T18:08:43;10.30;99.90
1307;DHT22;646;48.696;9.114;2023-01-04T18:11:10;10.50;99.90
1307;DHT22;646;48.696;9.114;2023-01-04T18:13:38;10.50;99.90
1307;DHT22;646;48.696;9.114;2023-01-04T18:16:06;10.40;99.90
1307;DHT22;646;48.696;9.114;2023-01-04T18:18:32;10.50;99.90
1307;DHT22;646;48.696;9.114;2023-01-04T18:21:07;9.80;99.90
1307;DHT22;646;48.696;9.114;2023-01-04T18:23:34;10.40;99.90
1307;DHT22;646;48.696;9.114;2023-01-04T18:26:02;10.50;99.90
1307;DHT22;646;48.696;9.114;2023-01-04T18:28:28;10.40;99.90
1307;DHT22;646;48.696;9.114;2023-01-04T18:30:53;10.30;99.90
1307;DHT22;646;48.696;9.114;2023-01-04T18:33:19;10.40;99.90
1307;DHT22;646;48.696;9.114;2023-01-04T18:35:44;10.50;99.90
1307;DHT22;646;48.696;9.114;2023-01-04T18:38:10;10.50;99.90
1307;DHT22;646;48.696;9.114;2023-01-04T18:40:37;10.60;99.90
1307;DHT22;646;48.696;9.114;2023-01-04T18:43:03;10.00;99.90
1307;DHT22;646;48.696;9.114;2023-01-04T18:45:28;10.30;99.90
1307;DHT22;646;48.696;9.114;2023-01-04T18:47:54;10.20;99.90
1307;DHT22;646;48.696;9.114;2023-01-04T18:50:19;10.00;99.90
1307;DHT22;646;48.696;9.114;2023-01-04T18:52:45;10.10;99.90
1307;DHT22;646;48.696;9.114;2023-01-04T18:55:10;10.10;99.90
1307;DHT22;646;48.696;9.114;2023-01-04T18:57:37;10.10;99.90